Notice: Undefined index: station in /home3/dimtiris/public_html/webApp/metar/index.php on line 4

Metar

Weather conditions for all airports of the world. Just type the ICAO code of an airport.

LGAV 231520Z 28012KT 9999 FEW025 18/06 Q1005 NOSIG

STATION LGAV
OBSERVED Thu Oct 23, 09:20 MDT
NOW Thu Oct 23, 09:46 MDT
AGE 26 min ago
WIND W at 14 mph
VISIBILITY 16 miles
CONDITIONS
CLOUDS partly cloudy
TEMP 64°F (18°C)
DEWPT 43°F (6°C)
HUMIDITY 46%
BAROMETER 1005 hPa (29.68 in Hg)

Get weather info from other station:

Some ICAO codes to try: